sensor_id;sensor_type;location;lat;lon;timestamp;P1;durP1;ratioP1;P2;durP2;ratioP2
6626;SDS011;3349;49.830;8.748;2024-03-06T00:02:04;16.90;;;9.02;;
6626;SDS011;3349;49.830;8.748;2024-03-06T00:04:31;17.20;;;8.55;;
6626;SDS011;3349;49.830;8.748;2024-03-06T00:06:58;15.77;;;7.80;;
6626;SDS011;3349;49.830;8.748;2024-03-06T00:09:25;13.95;;;8.38;;
6626;SDS011;3349;49.830;8.748;2024-03-06T00:11:53;14.23;;;7.40;;
6626;SDS011;3349;49.830;8.748;2024-03-06T00:14:20;14.07;;;8.13;;
6626;SDS011;3349;49.830;8.748;2024-03-06T00:16:47;12.98;;;8.40;;
6626;SDS011;3349;49.830;8.748;2024-03-06T00:19:15;18.10;;;8.73;;
6626;SDS011;3349;49.830;8.748;2024-03-06T00:21:41;15.30;;;8.18;;
6626;SDS011;3349;49.830;8.748;2024-03-06T00:24:08;11.73;;;7.75;;
6626;SDS011;3349;49.830;8.748;2024-03-06T00:26:39;10.80;;;7.20;;
6626;SDS011;3349;49.830;8.748;2024-03-06T00:29:07;18.13;;;7.45;;
6626;SDS011;3349;49.830;8.748;2024-03-06T00:31:34;18.10;;;7.38;;
6626;SDS011;3349;49.830;8.748;2024-03-06T00:34:01;11.50;;;6.90;;
6626;SDS011;3349;49.830;8.748;2024-03-06T00:36:28;11.85;;;7.80;;
6626;SDS011;3349;49.830;8.748;2024-03-06T00:38:55;13.20;;;7.53;;
6626;SDS011;3349;49.830;8.748;2024-03-06T00:41:21;11.65;;;7.13;;
6626;SDS011;3349;49.830;8.748;2024-03-06T00:43:48;11.70;;;7.38;;
6626;SDS011;3349;49.830;8.748;2024-03-06T00:46:16;14.32;;;8.18;;
6626;SDS011;3349;49.830;8.748;2024-03-06T00:48:43;13.77;;;7.65;;
6626;SDS011;3349;49.830;8.748;2024-03-06T00:51:09;13.15;;;7.82;;
6626;SDS011;3349;49.830;8.748;2024-03-06T00:53:37;11.82;;;8.65;;
6626;SDS011;3349;49.830;8.748;2024-03-06T00:56:04;15.63;;;9.32;;
6626;SDS011;3349;49.830;8.748;2024-03-06T00:58:31;14.13;;;8.27;;
6626;SDS011;3349;49.830;8.748;2024-03-06T01:00:58;15.98;;;8.00;;
6626;SDS011;3349;49.830;8.748;2024-03-06T01:03:26;14.43;;;8.23;;
6626;SDS011;3349;49.830;8.748;2024-03-06T01:05:53;15.45;;;7.85;;
6626;SDS011;3349;49.830;8.748;2024-03-06T01:08:21;15.02;;;8.27;;
6626;SDS011;3349;49.830;8.748;2024-03-06T01:10:49;14.35;;;8.07;;
6626;SDS011;3349;49.830;8.748;2024-03-06T01:13:16;11.55;;;6.95;;
6626;SDS011;3349;49.830;8.748;2024-03-06T01:15:43;12.93;;;8.35;;
6626;SDS011;3349;49.830;8.748;2024-03-06T01:18:10;12.10;;;7.07;;
6626;SDS011;3349;49.830;8.748;2024-03-06T01:20:38;12.13;;;7.47;;
6626;SDS011;3349;49.830;8.748;2024-03-06T01:23:05;7.95;;;6.30;;
6626;SDS011;3349;49.830;8.748;2024-03-06T01:25:32;11.65;;;6.97;;
6626;SDS011;3349;49.830;8.748;2024-03-06T01:27:58;11.45;;;7.10;;
6626;SDS011;3349;49.830;8.748;2024-03-06T01:30:25;9.80;;;6.13;;
6626;SDS011;3349;49.830;8.748;2024-03-06T01:32:51;10.18;;;6.70;;
6626;SDS011;3349;49.830;8.748;2024-03-06T01:35:18;11.73;;;6.93;;
6626;SDS011;3349;49.830;8.748;2024-03-06T01:37:46;12.43;;;7.43;;
6626;SDS011;3349;49.830;8.748;2024-03-06T01:40:13;11.07;;;7.35;;
6626;SDS011;3349;49.830;8.748;2024-03-06T01:42:40;14.27;;;7.07;;
6626;SDS011;3349;49.830;8.748;2024-03-06T01:45:07;14.02;;;7.13;;
6626;SDS011;3349;49.830;8.748;2024-03-06T01:47:34;10.70;;;6.25;;
6626;SDS011;3349;49.830;8.748;2024-03-06T01:50:01;14.27;;;7.07;;
6626;SDS011;3349;49.830;8.748;2024-03-06T01:52:31;9.23;;;6.65;;
6626;SDS011;3349;49.830;8.748;2024-03-06T01:54:59;14.15;;;6.90;;
6626;SDS011;3349;49.830;8.748;2024-03-06T01:57:25;10.25;;;6.57;;
6626;SDS011;3349;49.830;8.748;2024-03-06T01:59:52;8.00;;;5.82;;
6626;SDS011;3349;49.830;8.748;2024-03-06T02:02:19;8.52;;;6.43;;
6626;SDS011;3349;49.830;8.748;2024-03-06T02:04:46;8.27;;;6.60;;
6626;SDS011;3349;49.830;8.748;2024-03-06T02:07:13;8.60;;;6.25;;
6626;SDS011;3349;49.830;8.748;2024-03-06T02:09:42;6.93;;;5.45;;
6626;SDS011;3349;49.830;8.748;2024-03-06T02:12:10;11.50;;;6.57;;
6626;SDS011;3349;49.830;8.748;2024-03-06T02:14:38;10.27;;;5.72;;
6626;SDS011;3349;49.830;8.748;2024-03-06T02:17:04;11.80;;;6.25;;
6626;SDS011;3349;49.830;8.748;2024-03-06T02:19:38;15.52;;;6.32;;
6626;SDS011;3349;49.830;8.748;2024-03-06T02:22:06;15.45;;;6.90;;
6626;SDS011;3349;49.830;8.748;2024-03-06T02:24:34;17.52;;;6.85;;
6626;SDS011;3349;49.830;8.748;2024-03-06T02:27:01;15.90;;;7.05;;
6626;SDS011;3349;49.830;8.748;2024-03-06T02:29:30;16.27;;;8.48;;
6626;SDS011;3349;49.830;8.748;2024-03-06T02:31:57;19.05;;;7.93;;
6626;SDS011;3349;49.830;8.748;2024-03-06T02:34:24;16.90;;;8.03;;
6626;SDS011;3349;49.830;8.748;2024-03-06T02:36:50;18.60;;;7.75;;
6626;SDS011;3349;49.830;8.748;2024-03-06T02:39:18;15.70;;;7.43;;
6626;SDS011;3349;49.830;8.748;2024-03-06T02:41:46;16.67;;;7.57;;
6626;SDS011;3349;49.830;8.748;2024-03-06T02:44:13;12.65;;;6.93;;
6626;SDS011;3349;49.830;8.748;2024-03-06T02:46:40;15.43;;;7.10;;
6626;SDS011;3349;49.830;8.748;2024-03-06T02:49:07;12.73;;;6.85;;
6626;SDS011;3349;49.830;8.748;2024-03-06T02:51:34;9.43;;;6.63;;
6626;SDS011;3349;49.830;8.748;2024-03-06T02:54:01;8.25;;;6.05;;
6626;SDS011;3349;49.830;8.748;2024-03-06T02:56:30;8.97;;;6.03;;
6626;SDS011;3349;49.830;8.748;2024-03-06T02:58:57;10.60;;;6.32;;
6626;SDS011;3349;49.830;8.748;2024-03-06T03:01:23;9.80;;;6.13;;
6626;SDS011;3349;49.830;8.748;2024-03-06T03:03:50;17.70;;;6.43;;
6626;SDS011;3349;49.830;8.748;2024-03-06T03:06:17;9.80;;;6.20;;
6626;SDS011;3349;49.830;8.748;2024-03-06T03:08:44;8.13;;;5.70;;
6626;SDS011;3349;49.830;8.748;2024-03-06T03:11:10;11.48;;;5.43;;
6626;SDS011;3349;49.830;8.748;2024-03-06T03:13:39;9.07;;;6.10;;
6626;SDS011;3349;49.830;8.748;2024-03-06T03:16:05;9.65;;;5.80;;
6626;SDS011;3349;49.830;8.748;2024-03-06T03:18:32;10.13;;;5.53;;
6626;SDS011;3349;49.830;8.748;2024-03-06T03:20:58;9.20;;;6.28;;
6626;SDS011;3349;49.830;8.748;2024-03-06T03:23:26;8.52;;;6.05;;
6626;SDS011;3349;49.830;8.748;2024-03-06T03:25:53;10.20;;;5.30;;
6626;SDS011;3349;49.830;8.748;2024-03-06T03:28:20;11.32;;;5.85;;
6626;SDS011;3349;49.830;8.748;2024-03-06T03:30:48;10.15;;;6.13;;
6626;SDS011;3349;49.830;8.748;2024-03-06T03:33:15;7.97;;;5.70;;
6626;SDS011;3349;49.830;8.748;2024-03-06T03:35:41;9.20;;;6.32;;
6626;SDS011;3349;49.830;8.748;2024-03-06T03:38:08;10.43;;;6.13;;
6626;SDS011;3349;49.830;8.748;2024-03-06T03:40:35;7.93;;;5.82;;
6626;SDS011;3349;49.830;8.748;2024-03-06T03:43:01;11.13;;;5.90;;
6626;SDS011;3349;49.830;8.748;2024-03-06T03:45:31;8.20;;;5.53;;
6626;SDS011;3349;49.830;8.748;2024-03-06T03:48:01;9.05;;;5.95;;
6626;SDS011;3349;49.830;8.748;2024-03-06T03:50:28;10.88;;;6.57;;
6626;SDS011;3349;49.830;8.748;2024-03-06T03:52:55;10.15;;;6.20;;
6626;SDS011;3349;49.830;8.748;2024-03-06T03:55:23;10.50;;;5.88;;
6626;SDS011;3349;49.830;8.748;2024-03-06T03:57:50;10.43;;;6.57;;
6626;SDS011;3349;49.830;8.748;2024-03-06T04:00:17;9.53;;;5.60;;
6626;SDS011;3349;49.830;8.748;2024-03-06T04:02:45;8.07;;;5.77;;
6626;SDS011;3349;49.830;8.748;2024-03-06T04:05:13;9.60;;;5.82;;
6626;SDS011;3349;49.830;8.748;2024-03-06T04:07:39;9.65;;;5.78;;
6626;SDS011;3349;49.830;8.748;2024-03-06T04:10:07;9.90;;;6.20;;
6626;SDS011;3349;49.830;8.748;2024-03-06T04:12:36;13.35;;;6.07;;
6626;SDS011;3349;49.830;8.748;2024-03-06T04:15:03;9.55;;;6.40;;
6626;SDS011;3349;49.830;8.748;2024-03-06T04:17:31;10.13;;;7.22;;
6626;SDS011;3349;49.830;8.748;2024-03-06T04:19:57;14.05;;;7.40;;
6626;SDS011;3349;49.830;8.748;2024-03-06T04:22:26;13.37;;;8.00;;
6626;SDS011;3349;49.830;8.748;2024-03-06T04:24:54;13.95;;;7.38;;
6626;SDS011;3349;49.830;8.748;2024-03-06T04:27:23;13.93;;;7.47;;
6626;SDS011;3349;49.830;8.748;2024-03-06T04:29:50;11.97;;;7.13;;
6626;SDS011;3349;49.830;8.748;2024-03-06T04:32:17;13.50;;;7.00;;
6626;SDS011;3349;49.830;8.748;2024-03-06T04:34:43;15.30;;;6.90;;
6626;SDS011;3349;49.830;8.748;2024-03-06T04:37:11;8.30;;;6.37;;
6626;SDS011;3349;49.830;8.748;2024-03-06T04:39:39;9.17;;;5.80;;
6626;SDS011;3349;49.830;8.748;2024-03-06T04:42:06;16.67;;;8.03;;
6626;SDS011;3349;49.830;8.748;2024-03-06T04:44:33;18.63;;;11.60;;
6626;SDS011;3349;49.830;8.748;2024-03-06T04:46:59;16.20;;;9.50;;
6626;SDS011;3349;49.830;8.748;2024-03-06T04:49:26;10.83;;;7.40;;
6626;SDS011;3349;49.830;8.748;2024-03-06T04:51:53;12.97;;;7.73;;
6626;SDS011;3349;49.830;8.748;2024-03-06T04:54:19;12.33;;;8.43;;
6626;SDS011;3349;49.830;8.748;2024-03-06T04:56:47;9.93;;;7.70;;
6626;SDS011;3349;49.830;8.748;2024-03-06T04:59:14;10.60;;;7.93;;
6626;SDS011;3349;49.830;8.748;2024-03-06T05:01:41;9.27;;;7.00;;
6626;SDS011;3349;49.830;8.748;2024-03-06T05:04:08;9.80;;;6.70;;
6626;SDS011;3349;49.830;8.748;2024-03-06T05:06:35;10.13;;;6.57;;
6626;SDS011;3349;49.830;8.748;2024-03-06T05:09:03;9.40;;;7.30;;
6626;SDS011;3349;49.830;8.748;2024-03-06T05:11:30;12.40;;;7.03;;
6626;SDS011;3349;49.830;8.748;2024-03-06T05:13:59;12.50;;;7.90;;
6626;SDS011;3349;49.830;8.748;2024-03-06T05:16:25;11.20;;;7.77;;
6626;SDS011;3349;49.830;8.748;2024-03-06T05:18:53;11.30;;;7.53;;
6626;SDS011;3349;49.830;8.748;2024-03-06T05:21:19;14.73;;;8.53;;
6626;SDS011;3349;49.830;8.748;2024-03-06T05:23:47;11.40;;;7.90;;
6626;SDS011;3349;49.830;8.748;2024-03-06T05:26:14;13.27;;;7.80;;
6626;SDS011;3349;49.830;8.748;2024-03-06T05:28:41;9.88;;;6.82;;
6626;SDS011;3349;49.830;8.748;2024-03-06T05:31:16;11.47;;;6.67;;
6626;SDS011;3349;49.830;8.748;2024-03-06T05:33:44;11.50;;;6.70;;
6626;SDS011;3349;49.830;8.748;2024-03-06T05:36:12;12.17;;;7.27;;
6626;SDS011;3349;49.830;8.748;2024-03-06T05:38:39;12.07;;;6.20;;
6626;SDS011;3349;49.830;8.748;2024-03-06T05:41:06;13.40;;;6.83;;
6626;SDS011;3349;49.830;8.748;2024-03-06T05:43:33;12.60;;;6.70;;
6626;SDS011;3349;49.830;8.748;2024-03-06T05:46:00;12.43;;;6.60;;
6626;SDS011;3349;49.830;8.748;2024-03-06T05:48:27;10.13;;;6.63;;
6626;SDS011;3349;49.830;8.748;2024-03-06T05:50:54;8.68;;;6.32;;
6626;SDS011;3349;49.830;8.748;2024-03-06T05:53:21;12.00;;;6.93;;
6626;SDS011;3349;49.830;8.748;2024-03-06T05:55:48;12.10;;;6.43;;
6626;SDS011;3349;49.830;8.748;2024-03-06T05:58:15;10.63;;;6.87;;
6626;SDS011;3349;49.830;8.748;2024-03-06T06:00:42;9.35;;;6.15;;
6626;SDS011;3349;49.830;8.748;2024-03-06T06:03:09;12.68;;;6.85;;
6626;SDS011;3349;49.830;8.748;2024-03-06T06:05:38;10.38;;;6.65;;
6626;SDS011;3349;49.830;8.748;2024-03-06T06:08:05;12.27;;;7.78;;
6626;SDS011;3349;49.830;8.748;2024-03-06T06:10:32;8.10;;;6.43;;
6626;SDS011;3349;49.830;8.748;2024-03-06T06:12:59;11.45;;;7.18;;
6626;SDS011;3349;49.830;8.748;2024-03-06T06:15:28;11.38;;;6.95;;
6626;SDS011;3349;49.830;8.748;2024-03-06T06:17:55;11.40;;;7.35;;
6626;SDS011;3349;49.830;8.748;2024-03-06T06:20:22;11.68;;;7.43;;
6626;SDS011;3349;49.830;8.748;2024-03-06T06:22:50;10.30;;;7.18;;
6626;SDS011;3349;49.830;8.748;2024-03-06T06:25:17;10.05;;;6.85;;
6626;SDS011;3349;49.830;8.748;2024-03-06T06:27:44;11.63;;;7.63;;
6626;SDS011;3349;49.830;8.748;2024-03-06T06:30:11;10.10;;;7.38;;
6626;SDS011;3349;49.830;8.748;2024-03-06T06:32:38;9.90;;;7.63;;
6626;SDS011;3349;49.830;8.748;2024-03-06T06:35:05;16.67;;;7.68;;
6626;SDS011;3349;49.830;8.748;2024-03-06T06:37:33;13.50;;;7.18;;
6626;SDS011;3349;49.830;8.748;2024-03-06T06:40:01;12.23;;;7.95;;
6626;SDS011;3349;49.830;8.748;2024-03-06T06:42:31;10.40;;;7.40;;
6626;SDS011;3349;49.830;8.748;2024-03-06T06:44:58;12.25;;;8.10;;
6626;SDS011;3349;49.830;8.748;2024-03-06T06:47:24;11.38;;;7.32;;
6626;SDS011;3349;49.830;8.748;2024-03-06T06:49:52;9.90;;;7.47;;
6626;SDS011;3349;49.830;8.748;2024-03-06T06:52:18;12.70;;;7.63;;
6626;SDS011;3349;49.830;8.748;2024-03-06T06:54:45;16.40;;;8.95;;
6626;SDS011;3349;49.830;8.748;2024-03-06T06:57:15;12.85;;;8.70;;
6626;SDS011;3349;49.830;8.748;2024-03-06T06:59:41;13.18;;;8.38;;
6626;SDS011;3349;49.830;8.748;2024-03-06T07:02:08;15.00;;;7.93;;
6626;SDS011;3349;49.830;8.748;2024-03-06T07:04:35;13.18;;;8.35;;
6626;SDS011;3349;49.830;8.748;2024-03-06T07:07:02;12.30;;;7.90;;
6626;SDS011;3349;49.830;8.748;2024-03-06T07:09:28;17.42;;;8.90;;
6626;SDS011;3349;49.830;8.748;2024-03-06T07:11:55;12.38;;;8.27;;
6626;SDS011;3349;49.830;8.748;2024-03-06T07:14:23;14.75;;;8.55;;
6626;SDS011;3349;49.830;8.748;2024-03-06T07:16:50;14.13;;;8.32;;
6626;SDS011;3349;49.830;8.748;2024-03-06T07:19:17;16.92;;;8.57;;
6626;SDS011;3349;49.830;8.748;2024-03-06T07:21:43;13.35;;;8.60;;
6626;SDS011;3349;49.830;8.748;2024-03-06T07:24:10;12.75;;;9.55;;
6626;SDS011;3349;49.830;8.748;2024-03-06T07:26:37;15.10;;;10.30;;
6626;SDS011;3349;49.830;8.748;2024-03-06T07:29:04;19.60;;;11.00;;
6626;SDS011;3349;49.830;8.748;2024-03-06T07:31:39;20.40;;;12.35;;
6626;SDS011;3349;49.830;8.748;2024-03-06T07:34:06;25.33;;;13.32;;
6626;SDS011;3349;49.830;8.748;2024-03-06T07:36:33;26.33;;;13.52;;
6626;SDS011;3349;49.830;8.748;2024-03-06T07:39:00;28.55;;;12.98;;
6626;SDS011;3349;49.830;8.748;2024-03-06T07:41:27;24.83;;;13.65;;
6626;SDS011;3349;49.830;8.748;2024-03-06T07:43:54;22.48;;;12.65;;
6626;SDS011;3349;49.830;8.748;2024-03-06T07:46:21;16.52;;;11.80;;
6626;SDS011;3349;49.830;8.748;2024-03-06T07:48:48;15.00;;;10.77;;
6626;SDS011;3349;49.830;8.748;2024-03-06T07:51:16;13.45;;;10.50;;
6626;SDS011;3349;49.830;8.748;2024-03-06T07:53:43;16.63;;;10.60;;
6626;SDS011;3349;49.830;8.748;2024-03-06T07:56:10;16.58;;;10.80;;
6626;SDS011;3349;49.830;8.748;2024-03-06T07:58:37;18.77;;;11.38;;
6626;SDS011;3349;49.830;8.748;2024-03-06T08:01:04;24.70;;;12.55;;
6626;SDS011;3349;49.830;8.748;2024-03-06T08:03:32;16.63;;;11.57;;
6626;SDS011;3349;49.830;8.748;2024-03-06T08:06:00;19.30;;;12.38;;
6626;SDS011;3349;49.830;8.748;2024-03-06T08:08:27;17.30;;;12.30;;
6626;SDS011;3349;49.830;8.748;2024-03-06T08:10:53;17.23;;;10.35;;
6626;SDS011;3349;49.830;8.748;2024-03-06T08:13:20;19.23;;;10.15;;
6626;SDS011;3349;49.830;8.748;2024-03-06T08:15:47;15.85;;;10.20;;
6626;SDS011;3349;49.830;8.748;2024-03-06T08:18:13;17.00;;;10.38;;
6626;SDS011;3349;49.830;8.748;2024-03-06T08:20:40;14.63;;;10.05;;
6626;SDS011;3349;49.830;8.748;2024-03-06T08:23:09;20.13;;;10.98;;
6626;SDS011;3349;49.830;8.748;2024-03-06T08:25:35;19.27;;;12.05;;
6626;SDS011;3349;49.830;8.748;2024-03-06T08:28:02;16.30;;;12.82;;
6626;SDS011;3349;49.830;8.748;2024-03-06T08:30:30;21.35;;;15.77;;
6626;SDS011;3349;49.830;8.748;2024-03-06T08:32:57;21.45;;;15.85;;
6626;SDS011;3349;49.830;8.748;2024-03-06T08:35:24;23.65;;;17.92;;
6626;SDS011;3349;49.830;8.748;2024-03-06T08:37:51;23.88;;;17.92;;
6626;SDS011;3349;49.830;8.748;2024-03-06T08:40:19;26.17;;;18.27;;
6626;SDS011;3349;49.830;8.748;2024-03-06T08:42:48;26.75;;;18.38;;
6626;SDS011;3349;49.830;8.748;2024-03-06T08:45:16;39.75;;;17.98;;
6626;SDS011;3349;49.830;8.748;2024-03-06T08:47:43;25.55;;;17.40;;
6626;SDS011;3349;49.830;8.748;2024-03-06T08:50:10;24.88;;;18.17;;
6626;SDS011;3349;49.830;8.748;2024-03-06T08:52:37;26.13;;;18.02;;
6626;SDS011;3349;49.830;8.748;2024-03-06T08:55:06;30.83;;;18.80;;
6626;SDS011;3349;49.830;8.748;2024-03-06T08:57:35;25.65;;;18.02;;
6626;SDS011;3349;49.830;8.748;2024-03-06T09:00:02;28.55;;;18.65;;
6626;SDS011;3349;49.830;8.748;2024-03-06T09:02:33;23.73;;;17.25;;
6626;SDS011;3349;49.830;8.748;2024-03-06T09:05:00;24.42;;;17.55;;
6626;SDS011;3349;49.830;8.748;2024-03-06T09:07:29;22.58;;;16.73;;
6626;SDS011;3349;49.830;8.748;2024-03-06T09:09:56;26.88;;;16.50;;
6626;SDS011;3349;49.830;8.748;2024-03-06T09:12:23;24.17;;;16.15;;
6626;SDS011;3349;49.830;8.748;2024-03-06T09:14:51;24.65;;;16.38;;
6626;SDS011;3349;49.830;8.748;2024-03-06T09:17:17;25.75;;;16.20;;
6626;SDS011;3349;49.830;8.748;2024-03-06T09:19:44;25.70;;;16.23;;
6626;SDS011;3349;49.830;8.748;2024-03-06T09:22:10;21.67;;;15.68;;
6626;SDS011;3349;49.830;8.748;2024-03-06T09:24:37;19.02;;;15.55;;
6626;SDS011;3349;49.830;8.748;2024-03-06T09:27:04;21.20;;;16.63;;
6626;SDS011;3349;49.830;8.748;2024-03-06T09:29:31;23.52;;;16.00;;
6626;SDS011;3349;49.830;8.748;2024-03-06T09:31:59;20.63;;;16.60;;
6626;SDS011;3349;49.830;8.748;2024-03-06T09:34:25;21.25;;;16.73;;
6626;SDS011;3349;49.830;8.748;2024-03-06T09:36:52;24.20;;;18.00;;
6626;SDS011;3349;49.830;8.748;2024-03-06T09:39:19;22.92;;;17.13;;
6626;SDS011;3349;49.830;8.748;2024-03-06T09:41:47;26.50;;;18.60;;
6626;SDS011;3349;49.830;8.748;2024-03-06T09:44:15;22.38;;;17.52;;
6626;SDS011;3349;49.830;8.748;2024-03-06T09:46:42;24.38;;;17.35;;
6626;SDS011;3349;49.830;8.748;2024-03-06T09:49:12;22.42;;;16.95;;
6626;SDS011;3349;49.830;8.748;2024-03-06T09:51:40;19.75;;;16.73;;
6626;SDS011;3349;49.830;8.748;2024-03-06T09:54:11;20.85;;;16.83;;
6626;SDS011;3349;49.830;8.748;2024-03-06T09:56:40;20.52;;;16.98;;
6626;SDS011;3349;49.830;8.748;2024-03-06T09:59:07;22.48;;;17.30;;
6626;SDS011;3349;49.830;8.748;2024-03-06T10:01:35;23.17;;;18.15;;
6626;SDS011;3349;49.830;8.748;2024-03-06T10:04:20;19.70;;;16.52;;
6626;SDS011;3349;49.830;8.748;2024-03-06T10:06:48;22.70;;;18.08;;
6626;SDS011;3349;49.830;8.748;2024-03-06T10:09:16;22.38;;;18.70;;
6626;SDS011;3349;49.830;8.748;2024-03-06T10:11:43;21.35;;;18.13;;
6626;SDS011;3349;49.830;8.748;2024-03-06T10:14:10;21.83;;;17.92;;
6626;SDS011;3349;49.830;8.748;2024-03-06T10:16:37;22.02;;;17.55;;
6626;SDS011;3349;49.830;8.748;2024-03-06T10:19:16;23.77;;;18.42;;
6626;SDS011;3349;49.830;8.748;2024-03-06T10:21:46;20.75;;;17.63;;
6626;SDS011;3349;49.830;8.748;2024-03-06T10:24:16;22.98;;;18.08;;
6626;SDS011;3349;49.830;8.748;2024-03-06T10:26:45;21.50;;;18.23;;
6626;SDS011;3349;49.830;8.748;2024-03-06T10:29:13;19.80;;;16.75;;
6626;SDS011;3349;49.830;8.748;2024-03-06T10:31:41;19.42;;;17.05;;
6626;SDS011;3349;49.830;8.748;2024-03-06T10:34:13;20.65;;;17.13;;
6626;SDS011;3349;49.830;8.748;2024-03-06T10:36:40;21.45;;;18.20;;
6626;SDS011;3349;49.830;8.748;2024-03-06T10:39:09;22.48;;;17.50;;
6626;SDS011;3349;49.830;8.748;2024-03-06T10:41:38;21.58;;;17.98;;
6626;SDS011;3349;49.830;8.748;2024-03-06T10:44:07;21.92;;;17.65;;
6626;SDS011;3349;49.830;8.748;2024-03-06T10:46:38;20.38;;;17.25;;
6626;SDS011;3349;49.830;8.748;2024-03-06T10:49:09;21.20;;;18.05;;
6626;SDS011;3349;49.830;8.748;2024-03-06T10:51:37;19.88;;;17.63;;
6626;SDS011;3349;49.830;8.748;2024-03-06T10:54:06;22.38;;;17.35;;
6626;SDS011;3349;49.830;8.748;2024-03-06T10:56:38;20.88;;;17.20;;
6626;SDS011;3349;49.830;8.748;2024-03-06T10:59:06;21.38;;;16.80;;
6626;SDS011;3349;49.830;8.748;2024-03-06T11:01:34;20.75;;;17.33;;
6626;SDS011;3349;49.830;8.748;2024-03-06T11:04:01;19.67;;;16.45;;
6626;SDS011;3349;49.830;8.748;2024-03-06T11:06:28;19.77;;;17.10;;
6626;SDS011;3349;49.830;8.748;2024-03-06T11:08:55;20.70;;;16.80;;
6626;SDS011;3349;49.830;8.748;2024-03-06T11:11:23;20.38;;;17.55;;
6626;SDS011;3349;49.830;8.748;2024-03-06T11:13:52;18.58;;;16.38;;
6626;SDS011;3349;49.830;8.748;2024-03-06T11:16:26;20.38;;;17.65;;
6626;SDS011;3349;49.830;8.748;2024-03-06T11:19:03;20.65;;;16.35;;
6626;SDS011;3349;49.830;8.748;2024-03-06T11:21:31;19.20;;;17.05;;
6626;SDS011;3349;49.830;8.748;2024-03-06T11:24:14;20.95;;;17.35;;
6626;SDS011;3349;49.830;8.748;2024-03-06T11:26:44;19.13;;;16.23;;
6626;SDS011;3349;49.830;8.748;2024-03-06T11:29:13;20.95;;;17.17;;
6626;SDS011;3349;49.830;8.748;2024-03-06T11:31:55;21.00;;;17.45;;
6626;SDS011;3349;49.830;8.748;2024-03-06T11:34:26;21.20;;;17.70;;
6626;SDS011;3349;49.830;8.748;2024-03-06T11:36:53;20.10;;;17.15;;
6626;SDS011;3349;49.830;8.748;2024-03-06T11:39:22;21.88;;;16.95;;
6626;SDS011;3349;49.830;8.748;2024-03-06T11:41:50;21.25;;;17.58;;
6626;SDS011;3349;49.830;8.748;2024-03-06T11:44:17;19.90;;;17.63;;
6626;SDS011;3349;49.830;8.748;2024-03-06T11:46:46;20.67;;;17.95;;
6626;SDS011;3349;49.830;8.748;2024-03-06T11:49:14;19.95;;;16.95;;
6626;SDS011;3349;49.830;8.748;2024-03-06T11:51:43;20.17;;;17.25;;
6626;SDS011;3349;49.830;8.748;2024-03-06T11:54:11;21.83;;;17.90;;
6626;SDS011;3349;49.830;8.748;2024-03-06T11:56:38;21.80;;;16.50;;
6626;SDS011;3349;49.830;8.748;2024-03-06T11:59:06;19.77;;;17.00;;
6626;SDS011;3349;49.830;8.748;2024-03-06T12:01:34;20.05;;;17.02;;
6626;SDS011;3349;49.830;8.748;2024-03-06T12:04:01;21.83;;;16.33;;
6626;SDS011;3349;49.830;8.748;2024-03-06T12:06:29;19.05;;;15.95;;
6626;SDS011;3349;49.830;8.748;2024-03-06T12:08:56;18.30;;;15.48;;
6626;SDS011;3349;49.830;8.748;2024-03-06T12:11:22;20.40;;;16.42;;
6626;SDS011;3349;49.830;8.748;2024-03-06T12:13:50;20.95;;;17.60;;
6626;SDS011;3349;49.830;8.748;2024-03-06T12:16:19;18.08;;;16.17;;
6626;SDS011;3349;49.830;8.748;2024-03-06T12:18:45;19.85;;;17.35;;
6626;SDS011;3349;49.830;8.748;2024-03-06T12:21:12;21.08;;;17.00;;
6626;SDS011;3349;49.830;8.748;2024-03-06T12:23:39;21.20;;;17.77;;
6626;SDS011;3349;49.830;8.748;2024-03-06T12:26:07;24.10;;;17.45;;
6626;SDS011;3349;49.830;8.748;2024-03-06T12:28:35;22.38;;;17.40;;
6626;SDS011;3349;49.830;8.748;2024-03-06T12:31:02;20.33;;;16.25;;
6626;SDS011;3349;49.830;8.748;2024-03-06T12:33:31;23.02;;;17.10;;
6626;SDS011;3349;49.830;8.748;2024-03-06T12:36:00;20.30;;;16.73;;
6626;SDS011;3349;49.830;8.748;2024-03-06T12:38:28;19.00;;;15.88;;
6626;SDS011;3349;49.830;8.748;2024-03-06T12:40:55;19.30;;;15.15;;
6626;SDS011;3349;49.830;8.748;2024-03-06T12:43:22;19.38;;;15.55;;
6626;SDS011;3349;49.830;8.748;2024-03-06T12:45:49;20.10;;;15.70;;
6626;SDS011;3349;49.830;8.748;2024-03-06T12:48:15;19.27;;;15.77;;
6626;SDS011;3349;49.830;8.748;2024-03-06T12:50:43;19.50;;;16.15;;
6626;SDS011;3349;49.830;8.748;2024-03-06T12:53:15;19.10;;;14.57;;
6626;SDS011;3349;49.830;8.748;2024-03-06T12:55:42;17.98;;;14.98;;
6626;SDS011;3349;49.830;8.748;2024-03-06T12:58:10;16.83;;;13.85;;
6626;SDS011;3349;49.830;8.748;2024-03-06T13:00:37;17.17;;;14.25;;
6626;SDS011;3349;49.830;8.748;2024-03-06T13:03:04;17.90;;;14.27;;
6626;SDS011;3349;49.830;8.748;2024-03-06T13:05:31;17.73;;;14.50;;
6626;SDS011;3349;49.830;8.748;2024-03-06T13:08:00;18.05;;;15.20;;
6626;SDS011;3349;49.830;8.748;2024-03-06T13:10:26;19.80;;;16.30;;
6626;SDS011;3349;49.830;8.748;2024-03-06T13:12:53;23.40;;;16.98;;
6626;SDS011;3349;49.830;8.748;2024-03-06T13:15:20;23.20;;;17.35;;
6626;SDS011;3349;49.830;8.748;2024-03-06T13:17:47;22.63;;;17.70;;
6626;SDS011;3349;49.830;8.748;2024-03-06T13:20:14;22.20;;;17.55;;
6626;SDS011;3349;49.830;8.748;2024-03-06T13:22:40;20.50;;;17.35;;
6626;SDS011;3349;49.830;8.748;2024-03-06T13:25:10;22.75;;;17.58;;
6626;SDS011;3349;49.830;8.748;2024-03-06T13:27:37;24.17;;;17.65;;
6626;SDS011;3349;49.830;8.748;2024-03-06T13:30:04;48.70;;;18.38;;
6626;SDS011;3349;49.830;8.748;2024-03-06T13:32:33;33.95;;;17.35;;
6626;SDS011;3349;49.830;8.748;2024-03-06T13:35:00;27.23;;;17.50;;
6626;SDS011;3349;49.830;8.748;2024-03-06T13:37:27;22.85;;;16.92;;
6626;SDS011;3349;49.830;8.748;2024-03-06T13:39:54;22.60;;;16.42;;
6626;SDS011;3349;49.830;8.748;2024-03-06T13:42:26;21.73;;;16.77;;
6626;SDS011;3349;49.830;8.748;2024-03-06T13:44:53;28.65;;;17.17;;
6626;SDS011;3349;49.830;8.748;2024-03-06T13:47:20;23.83;;;16.55;;
6626;SDS011;3349;49.830;8.748;2024-03-06T13:49:47;38.38;;;16.98;;
6626;SDS011;3349;49.830;8.748;2024-03-06T13:52:14;24.85;;;15.98;;
6626;SDS011;3349;49.830;8.748;2024-03-06T13:54:45;20.58;;;14.75;;
6626;SDS011;3349;49.830;8.748;2024-03-06T13:57:12;18.58;;;14.55;;
6626;SDS011;3349;49.830;8.748;2024-03-06T13:59:41;19.02;;;14.48;;
6626;SDS011;3349;49.830;8.748;2024-03-06T14:02:08;19.60;;;14.60;;
6626;SDS011;3349;49.830;8.748;2024-03-06T14:04:34;17.85;;;14.15;;
6626;SDS011;3349;49.830;8.748;2024-03-06T14:07:01;18.10;;;13.57;;
6626;SDS011;3349;49.830;8.748;2024-03-06T14:09:28;19.50;;;13.57;;
6626;SDS011;3349;49.830;8.748;2024-03-06T14:11:55;15.50;;;12.27;;
6626;SDS011;3349;49.830;8.748;2024-03-06T14:14:22;17.77;;;13.60;;
6626;SDS011;3349;49.830;8.748;2024-03-06T14:16:50;17.95;;;13.02;;
6626;SDS011;3349;49.830;8.748;2024-03-06T14:19:16;16.00;;;13.15;;
6626;SDS011;3349;49.830;8.748;2024-03-06T14:21:43;16.85;;;13.88;;
6626;SDS011;3349;49.830;8.748;2024-03-06T14:24:12;18.67;;;13.75;;
6626;SDS011;3349;49.830;8.748;2024-03-06T14:26:39;18.48;;;14.45;;
6626;SDS011;3349;49.830;8.748;2024-03-06T14:29:06;16.30;;;13.57;;
6626;SDS011;3349;49.830;8.748;2024-03-06T14:31:34;20.42;;;15.32;;
6626;SDS011;3349;49.830;8.748;2024-03-06T14:34:02;17.15;;;14.15;;
6626;SDS011;3349;49.830;8.748;2024-03-06T14:36:29;19.38;;;15.52;;
6626;SDS011;3349;49.830;8.748;2024-03-06T14:38:56;18.88;;;14.80;;
6626;SDS011;3349;49.830;8.748;2024-03-06T14:41:22;20.63;;;14.75;;
6626;SDS011;3349;49.830;8.748;2024-03-06T14:43:49;19.35;;;16.02;;
6626;SDS011;3349;49.830;8.748;2024-03-06T14:46:15;20.00;;;15.73;;
6626;SDS011;3349;49.830;8.748;2024-03-06T14:48:43;21.27;;;16.42;;
6626;SDS011;3349;49.830;8.748;2024-03-06T14:51:11;22.55;;;16.75;;
6626;SDS011;3349;49.830;8.748;2024-03-06T14:53:38;18.98;;;15.38;;
6626;SDS011;3349;49.830;8.748;2024-03-06T14:56:05;20.52;;;15.52;;
6626;SDS011;3349;49.830;8.748;2024-03-06T14:58:32;21.83;;;15.55;;